sensor_id;sensor_type;location;lat;lon;timestamp;P1;durP1;ratioP1;P2;durP2;ratioP2
38581;SDS011;24349;53.720;10.014;2023-01-29T00:01:02;26.80;;;17.05;;
38581;SDS011;24349;53.720;10.014;2023-01-29T00:03:28;25.25;;;15.43;;
38581;SDS011;24349;53.720;10.014;2023-01-29T00:05:54;22.98;;;14.63;;
38581;SDS011;24349;53.720;10.014;2023-01-29T00:08:19;22.85;;;15.02;;
38581;SDS011;24349;53.720;10.014;2023-01-29T00:10:45;22.25;;;14.45;;
38581;SDS011;24349;53.720;10.014;2023-01-29T00:13:11;23.70;;;14.35;;
38581;SDS011;24349;53.720;10.014;2023-01-29T00:15:37;21.30;;;14.50;;
38581;SDS011;24349;53.720;10.014;2023-01-29T00:18:03;25.10;;;14.75;;
38581;SDS011;24349;53.720;10.014;2023-01-29T00:20:29;23.70;;;15.40;;
38581;SDS011;24349;53.720;10.014;2023-01-29T00:22:55;20.75;;;14.10;;
38581;SDS011;24349;53.720;10.014;2023-01-29T00:25:20;21.90;;;14.43;;
38581;SDS011;24349;53.720;10.014;2023-01-29T00:27:46;29.38;;;17.45;;
38581;SDS011;24349;53.720;10.014;2023-01-29T00:30:12;21.23;;;14.73;;
38581;SDS011;24349;53.720;10.014;2023-01-29T00:32:42;28.65;;;17.23;;
38581;SDS011;24349;53.720;10.014;2023-01-29T00:35:09;25.20;;;15.40;;
38581;SDS011;24349;53.720;10.014;2023-01-29T00:37:36;23.27;;;14.85;;
38581;SDS011;24349;53.720;10.014;2023-01-29T00:40:02;23.88;;;13.57;;
38581;SDS011;24349;53.720;10.014;2023-01-29T00:42:28;22.30;;;14.10;;
38581;SDS011;24349;53.720;10.014;2023-01-29T00:45:13;24.58;;;15.10;;
38581;SDS011;24349;53.720;10.014;2023-01-29T00:47:39;23.63;;;14.05;;
38581;SDS011;24349;53.720;10.014;2023-01-29T00:50:06;21.50;;;14.23;;
38581;SDS011;24349;53.720;10.014;2023-01-29T00:52:35;24.08;;;14.32;;
38581;SDS011;24349;53.720;10.014;2023-01-29T00:55:03;21.00;;;12.82;;
38581;SDS011;24349;53.720;10.014;2023-01-29T00:57:30;23.92;;;13.85;;
38581;SDS011;24349;53.720;10.014;2023-01-29T00:59:57;21.02;;;13.50;;
38581;SDS011;24349;53.720;10.014;2023-01-29T01:02:23;28.90;;;13.77;;
38581;SDS011;24349;53.720;10.014;2023-01-29T01:05:08;21.88;;;13.85;;
38581;SDS011;24349;53.720;10.014;2023-01-29T01:07:38;24.17;;;13.50;;
38581;SDS011;24349;53.720;10.014;2023-01-29T01:10:05;18.85;;;11.15;;
38581;SDS011;24349;53.720;10.014;2023-01-29T01:12:50;25.38;;;13.93;;
38581;SDS011;24349;53.720;10.014;2023-01-29T01:15:22;20.08;;;11.75;;
38581;SDS011;24349;53.720;10.014;2023-01-29T01:17:53;19.95;;;11.75;;
38581;SDS011;24349;53.720;10.014;2023-01-29T01:20:20;20.88;;;12.90;;
38581;SDS011;24349;53.720;10.014;2023-01-29T01:22:47;24.33;;;14.15;;
38581;SDS011;24349;53.720;10.014;2023-01-29T01:25:12;20.30;;;11.95;;
38581;SDS011;24349;53.720;10.014;2023-01-29T01:27:39;20.30;;;12.35;;
38581;SDS011;24349;53.720;10.014;2023-01-29T01:30:09;20.38;;;12.23;;
38581;SDS011;24349;53.720;10.014;2023-01-29T01:32:37;25.50;;;14.68;;
38581;SDS011;24349;53.720;10.014;2023-01-29T01:35:03;21.80;;;12.98;;
38581;SDS011;24349;53.720;10.014;2023-01-29T01:37:29;19.90;;;12.60;;
38581;SDS011;24349;53.720;10.014;2023-01-29T01:39:54;19.40;;;13.00;;
38581;SDS011;24349;53.720;10.014;2023-01-29T01:42:22;21.70;;;13.23;;
38581;SDS011;24349;53.720;10.014;2023-01-29T01:45:00;19.77;;;12.65;;
38581;SDS011;24349;53.720;10.014;2023-01-29T01:47:40;19.05;;;12.25;;
38581;SDS011;24349;53.720;10.014;2023-01-29T01:50:17;24.48;;;14.00;;
38581;SDS011;24349;53.720;10.014;2023-01-29T01:52:49;19.13;;;11.95;;
38581;SDS011;24349;53.720;10.014;2023-01-29T01:55:18;23.20;;;14.05;;
38581;SDS011;24349;53.720;10.014;2023-01-29T01:57:48;21.13;;;13.18;;
38581;SDS011;24349;53.720;10.014;2023-01-29T02:00:19;23.45;;;14.32;;
38581;SDS011;24349;53.720;10.014;2023-01-29T02:02:49;23.67;;;13.50;;
38581;SDS011;24349;53.720;10.014;2023-01-29T02:05:33;25.80;;;15.50;;
38581;SDS011;24349;53.720;10.014;2023-01-29T02:11:42;23.23;;;13.82;;
38581;SDS011;24349;53.720;10.014;2023-01-29T02:14:08;23.17;;;13.30;;
38581;SDS011;24349;53.720;10.014;2023-01-29T02:16:35;22.63;;;13.70;;
38581;SDS011;24349;53.720;10.014;2023-01-29T02:19:00;24.80;;;15.38;;
38581;SDS011;24349;53.720;10.014;2023-01-29T02:21:44;23.00;;;12.45;;
38581;SDS011;24349;53.720;10.014;2023-01-29T02:27:18;21.73;;;13.43;;
38581;SDS011;24349;53.720;10.014;2023-01-29T02:29:56;23.55;;;12.98;;
38581;SDS011;24349;53.720;10.014;2023-01-29T02:34:57;20.77;;;12.70;;
38581;SDS011;24349;53.720;10.014;2023-01-29T02:40:44;21.63;;;13.38;;
38581;SDS011;24349;53.720;10.014;2023-01-29T02:43:43;22.02;;;14.10;;
38581;SDS011;24349;53.720;10.014;2023-01-29T02:46:37;26.27;;;15.73;;
38581;SDS011;24349;53.720;10.014;2023-01-29T02:51:50;19.90;;;12.50;;
38581;SDS011;24349;53.720;10.014;2023-01-29T02:56:54;20.85;;;13.13;;
38581;SDS011;24349;53.720;10.014;2023-01-29T02:59:27;23.15;;;13.73;;
38581;SDS011;24349;53.720;10.014;2023-01-29T03:02:09;23.20;;;13.63;;
38581;SDS011;24349;53.720;10.014;2023-01-29T03:04:43;20.65;;;11.73;;
38581;SDS011;24349;53.720;10.014;2023-01-29T03:07:18;22.73;;;13.40;;
38581;SDS011;24349;53.720;10.014;2023-01-29T03:12:50;24.23;;;13.80;;
38581;SDS011;24349;53.720;10.014;2023-01-29T03:15:31;21.40;;;14.07;;
38581;SDS011;24349;53.720;10.014;2023-01-29T03:20:46;20.98;;;13.10;;
38581;SDS011;24349;53.720;10.014;2023-01-29T03:23:20;21.13;;;12.35;;
38581;SDS011;24349;53.720;10.014;2023-01-29T03:25:51;18.23;;;12.20;;
38581;SDS011;24349;53.720;10.014;2023-01-29T03:28:41;22.77;;;13.27;;
38581;SDS011;24349;53.720;10.014;2023-01-29T03:31:28;18.65;;;11.43;;
38581;SDS011;24349;53.720;10.014;2023-01-29T03:34:17;18.20;;;12.02;;
38581;SDS011;24349;53.720;10.014;2023-01-29T03:36:53;18.95;;;12.13;;
38581;SDS011;24349;53.720;10.014;2023-01-29T03:39:24;19.90;;;11.57;;
38581;SDS011;24349;53.720;10.014;2023-01-29T03:41:53;17.55;;;11.13;;
38581;SDS011;24349;53.720;10.014;2023-01-29T03:44:34;17.10;;;11.10;;
38581;SDS011;24349;53.720;10.014;2023-01-29T03:47:14;17.70;;;11.00;;
38581;SDS011;24349;53.720;10.014;2023-01-29T03:52:42;16.35;;;11.30;;
38581;SDS011;24349;53.720;10.014;2023-01-29T03:55:41;22.02;;;13.45;;
38581;SDS011;24349;53.720;10.014;2023-01-29T03:58:35;18.95;;;11.27;;
38581;SDS011;24349;53.720;10.014;2023-01-29T04:02:08;17.45;;;11.07;;
38581;SDS011;24349;53.720;10.014;2023-01-29T04:04:21;19.90;;;11.13;;
38581;SDS011;24349;53.720;10.014;2023-01-29T04:06:51;16.70;;;10.88;;
38581;SDS011;24349;53.720;10.014;2023-01-29T04:09:28;21.38;;;12.40;;
38581;SDS011;24349;53.720;10.014;2023-01-29T04:12:03;16.08;;;10.85;;
38581;SDS011;24349;53.720;10.014;2023-01-29T04:14:33;18.70;;;12.35;;
38581;SDS011;24349;53.720;10.014;2023-01-29T04:17:00;16.45;;;11.02;;
38581;SDS011;24349;53.720;10.014;2023-01-29T04:19:32;17.40;;;11.23;;
38581;SDS011;24349;53.720;10.014;2023-01-29T04:22:01;17.05;;;10.63;;
38581;SDS011;24349;53.720;10.014;2023-01-29T04:24:31;16.87;;;11.00;;
38581;SDS011;24349;53.720;10.014;2023-01-29T04:27:14;14.98;;;10.25;;
38581;SDS011;24349;53.720;10.014;2023-01-29T04:41:58;16.95;;;10.80;;
38581;SDS011;24349;53.720;10.014;2023-01-29T04:44:46;19.63;;;12.70;;
38581;SDS011;24349;53.720;10.014;2023-01-29T04:47:24;15.30;;;9.75;;
38581;SDS011;24349;53.720;10.014;2023-01-29T04:50:17;15.43;;;10.73;;
38581;SDS011;24349;53.720;10.014;2023-01-29T04:52:52;17.08;;;11.52;;
38581;SDS011;24349;53.720;10.014;2023-01-29T04:55:50;16.95;;;9.20;;
38581;SDS011;24349;53.720;10.014;2023-01-29T04:58:43;15.90;;;9.63;;
38581;SDS011;24349;53.720;10.014;2023-01-29T05:03:41;14.05;;;9.55;;
38581;SDS011;24349;53.720;10.014;2023-01-29T05:06:11;19.67;;;11.52;;
38581;SDS011;24349;53.720;10.014;2023-01-29T05:08:38;16.30;;;9.35;;
38581;SDS011;24349;53.720;10.014;2023-01-29T05:11:05;19.58;;;10.95;;
38581;SDS011;24349;53.720;10.014;2023-01-29T05:13:31;17.90;;;11.30;;
38581;SDS011;24349;53.720;10.014;2023-01-29T05:16:01;15.95;;;10.98;;
38581;SDS011;24349;53.720;10.014;2023-01-29T05:18:28;15.20;;;9.90;;
38581;SDS011;24349;53.720;10.014;2023-01-29T05:20:55;17.75;;;10.82;;
38581;SDS011;24349;53.720;10.014;2023-01-29T05:23:21;17.50;;;10.77;;
38581;SDS011;24349;53.720;10.014;2023-01-29T05:25:47;16.92;;;10.50;;
38581;SDS011;24349;53.720;10.014;2023-01-29T05:28:15;20.15;;;10.50;;
38581;SDS011;24349;53.720;10.014;2023-01-29T05:30:45;15.32;;;10.13;;
38581;SDS011;24349;53.720;10.014;2023-01-29T05:33:19;18.80;;;11.52;;
38581;SDS011;24349;53.720;10.014;2023-01-29T05:35:47;17.30;;;10.30;;
38581;SDS011;24349;53.720;10.014;2023-01-29T05:38:13;14.98;;;8.65;;
38581;SDS011;24349;53.720;10.014;2023-01-29T05:40:40;15.43;;;10.35;;
38581;SDS011;24349;53.720;10.014;2023-01-29T05:43:12;17.83;;;10.40;;
38581;SDS011;24349;53.720;10.014;2023-01-29T05:45:42;16.65;;;10.00;;
38581;SDS011;24349;53.720;10.014;2023-01-29T05:48:23;17.35;;;10.52;;
38581;SDS011;24349;53.720;10.014;2023-01-29T05:50:49;15.50;;;10.57;;
38581;SDS011;24349;53.720;10.014;2023-01-29T05:53:15;17.73;;;10.50;;
38581;SDS011;24349;53.720;10.014;2023-01-29T05:55:44;16.00;;;10.32;;
38581;SDS011;24349;53.720;10.014;2023-01-29T05:58:11;17.95;;;10.15;;
38581;SDS011;24349;53.720;10.014;2023-01-29T06:00:37;17.08;;;9.90;;
38581;SDS011;24349;53.720;10.014;2023-01-29T06:03:03;16.23;;;9.50;;
38581;SDS011;24349;53.720;10.014;2023-01-29T06:05:29;17.30;;;10.05;;
38581;SDS011;24349;53.720;10.014;2023-01-29T06:07:55;19.88;;;10.88;;
38581;SDS011;24349;53.720;10.014;2023-01-29T06:10:20;16.73;;;10.27;;
38581;SDS011;24349;53.720;10.014;2023-01-29T06:12:46;18.70;;;10.48;;
38581;SDS011;24349;53.720;10.014;2023-01-29T06:15:12;17.50;;;10.50;;
38581;SDS011;24349;53.720;10.014;2023-01-29T06:17:39;17.00;;;10.48;;
38581;SDS011;24349;53.720;10.014;2023-01-29T06:20:06;20.25;;;11.43;;
38581;SDS011;24349;53.720;10.014;2023-01-29T06:22:32;15.30;;;10.88;;
38581;SDS011;24349;53.720;10.014;2023-01-29T06:24:58;19.63;;;12.00;;
38581;SDS011;24349;53.720;10.014;2023-01-29T06:27:24;19.67;;;11.95;;
38581;SDS011;24349;53.720;10.014;2023-01-29T06:29:49;20.90;;;11.93;;
38581;SDS011;24349;53.720;10.014;2023-01-29T06:32:15;20.23;;;12.48;;
38581;SDS011;24349;53.720;10.014;2023-01-29T06:34:40;23.42;;;12.48;;
38581;SDS011;24349;53.720;10.014;2023-01-29T06:37:06;20.75;;;12.38;;
38581;SDS011;24349;53.720;10.014;2023-01-29T06:39:32;18.63;;;11.05;;
38581;SDS011;24349;53.720;10.014;2023-01-29T06:41:58;20.38;;;11.90;;
38581;SDS011;24349;53.720;10.014;2023-01-29T06:44:23;18.55;;;11.85;;
38581;SDS011;24349;53.720;10.014;2023-01-29T06:46:49;19.73;;;12.45;;
38581;SDS011;24349;53.720;10.014;2023-01-29T06:49:15;18.42;;;11.32;;
38581;SDS011;24349;53.720;10.014;2023-01-29T06:51:40;19.50;;;12.15;;
38581;SDS011;24349;53.720;10.014;2023-01-29T06:54:06;19.48;;;12.07;;
38581;SDS011;24349;53.720;10.014;2023-01-29T06:56:33;18.17;;;10.93;;
38581;SDS011;24349;53.720;10.014;2023-01-29T06:58:59;20.02;;;11.55;;
38581;SDS011;24349;53.720;10.014;2023-01-29T07:01:25;17.48;;;11.60;;
38581;SDS011;24349;53.720;10.014;2023-01-29T07:03:51;22.27;;;12.40;;
38581;SDS011;24349;53.720;10.014;2023-01-29T07:06:17;19.70;;;11.10;;
38581;SDS011;24349;53.720;10.014;2023-01-29T07:08:43;20.75;;;12.25;;
38581;SDS011;24349;53.720;10.014;2023-01-29T07:11:09;17.17;;;10.75;;
38581;SDS011;24349;53.720;10.014;2023-01-29T07:13:35;19.58;;;11.77;;
38581;SDS011;24349;53.720;10.014;2023-01-29T07:16:01;17.67;;;11.15;;
38581;SDS011;24349;53.720;10.014;2023-01-29T07:18:28;19.02;;;11.00;;
38581;SDS011;24349;53.720;10.014;2023-01-29T07:20:55;18.60;;;11.25;;
38581;SDS011;24349;53.720;10.014;2023-01-29T07:23:20;18.30;;;11.02;;
38581;SDS011;24349;53.720;10.014;2023-01-29T07:25:46;18.85;;;10.52;;
38581;SDS011;24349;53.720;10.014;2023-01-29T07:28:14;21.08;;;12.45;;
38581;SDS011;24349;53.720;10.014;2023-01-29T07:30:40;19.77;;;11.85;;
38581;SDS011;24349;53.720;10.014;2023-01-29T07:33:06;18.08;;;11.23;;
38581;SDS011;24349;53.720;10.014;2023-01-29T07:35:37;19.60;;;11.63;;
38581;SDS011;24349;53.720;10.014;2023-01-29T07:38:03;22.30;;;12.77;;
38581;SDS011;24349;53.720;10.014;2023-01-29T07:40:30;19.17;;;12.05;;
38581;SDS011;24349;53.720;10.014;2023-01-29T07:42:59;21.00;;;12.75;;
38581;SDS011;24349;53.720;10.014;2023-01-29T07:45:26;22.80;;;13.57;;
38581;SDS011;24349;53.720;10.014;2023-01-29T07:47:53;21.88;;;12.93;;
38581;SDS011;24349;53.720;10.014;2023-01-29T07:50:20;21.13;;;11.90;;
38581;SDS011;24349;53.720;10.014;2023-01-29T07:52:49;26.67;;;15.43;;
38581;SDS011;24349;53.720;10.014;2023-01-29T07:55:15;21.13;;;12.60;;
38581;SDS011;24349;53.720;10.014;2023-01-29T07:57:41;21.40;;;13.98;;
38581;SDS011;24349;53.720;10.014;2023-01-29T08:00:08;24.48;;;13.88;;
38581;SDS011;24349;53.720;10.014;2023-01-29T08:02:35;22.55;;;13.57;;
38581;SDS011;24349;53.720;10.014;2023-01-29T08:05:01;22.77;;;13.63;;
38581;SDS011;24349;53.720;10.014;2023-01-29T08:07:26;21.08;;;13.00;;
38581;SDS011;24349;53.720;10.014;2023-01-29T08:09:52;21.70;;;13.38;;
38581;SDS011;24349;53.720;10.014;2023-01-29T08:12:18;22.65;;;14.00;;
38581;SDS011;24349;53.720;10.014;2023-01-29T08:14:43;22.27;;;14.85;;
38581;SDS011;24349;53.720;10.014;2023-01-29T08:17:10;20.70;;;12.70;;
38581;SDS011;24349;53.720;10.014;2023-01-29T08:19:36;22.58;;;14.15;;
38581;SDS011;24349;53.720;10.014;2023-01-29T08:22:02;23.42;;;14.90;;
38581;SDS011;24349;53.720;10.014;2023-01-29T08:24:29;22.20;;;14.77;;
38581;SDS011;24349;53.720;10.014;2023-01-29T08:26:54;22.25;;;14.02;;
38581;SDS011;24349;53.720;10.014;2023-01-29T08:29:20;21.15;;;12.70;;
38581;SDS011;24349;53.720;10.014;2023-01-29T08:31:46;25.58;;;14.95;;
38581;SDS011;24349;53.720;10.014;2023-01-29T08:34:11;27.42;;;17.52;;
38581;SDS011;24349;53.720;10.014;2023-01-29T08:36:37;24.40;;;16.15;;
38581;SDS011;24349;53.720;10.014;2023-01-29T08:39:02;22.95;;;15.25;;
38581;SDS011;24349;53.720;10.014;2023-01-29T08:41:28;26.05;;;16.30;;
38581;SDS011;24349;53.720;10.014;2023-01-29T08:43:54;24.45;;;14.90;;
38581;SDS011;24349;53.720;10.014;2023-01-29T08:46:21;28.33;;;18.17;;
38581;SDS011;24349;53.720;10.014;2023-01-29T08:48:46;25.02;;;15.00;;
38581;SDS011;24349;53.720;10.014;2023-01-29T08:51:12;26.80;;;17.27;;
38581;SDS011;24349;53.720;10.014;2023-01-29T08:53:37;27.17;;;18.17;;
38581;SDS011;24349;53.720;10.014;2023-01-29T08:56:03;25.92;;;14.40;;
38581;SDS011;24349;53.720;10.014;2023-01-29T08:58:29;23.50;;;14.48;;
38581;SDS011;24349;53.720;10.014;2023-01-29T09:00:54;25.42;;;16.33;;
38581;SDS011;24349;53.720;10.014;2023-01-29T09:03:20;27.65;;;17.80;;
38581;SDS011;24349;53.720;10.014;2023-01-29T09:05:46;30.15;;;18.20;;
38581;SDS011;24349;53.720;10.014;2023-01-29T09:08:11;30.05;;;18.88;;
38581;SDS011;24349;53.720;10.014;2023-01-29T09:10:37;29.52;;;19.20;;
38581;SDS011;24349;53.720;10.014;2023-01-29T09:13:03;34.55;;;21.23;;
38581;SDS011;24349;53.720;10.014;2023-01-29T09:15:29;34.45;;;21.55;;
38581;SDS011;24349;53.720;10.014;2023-01-29T09:17:56;32.63;;;21.63;;
38581;SDS011;24349;53.720;10.014;2023-01-29T09:20:21;28.70;;;18.35;;
38581;SDS011;24349;53.720;10.014;2023-01-29T09:22:47;38.47;;;22.35;;
38581;SDS011;24349;53.720;10.014;2023-01-29T09:25:14;33.08;;;21.40;;
38581;SDS011;24349;53.720;10.014;2023-01-29T09:27:40;33.28;;;22.17;;
38581;SDS011;24349;53.720;10.014;2023-01-29T09:30:05;34.47;;;21.50;;
38581;SDS011;24349;53.720;10.014;2023-01-29T09:32:32;31.95;;;20.33;;
38581;SDS011;24349;53.720;10.014;2023-01-29T09:34:58;22.33;;;14.30;;
38581;SDS011;24349;53.720;10.014;2023-01-29T09:37:24;28.38;;;18.25;;
38581;SDS011;24349;53.720;10.014;2023-01-29T09:39:50;35.65;;;21.85;;
38581;SDS011;24349;53.720;10.014;2023-01-29T09:42:35;43.25;;;27.13;;
38581;SDS011;24349;53.720;10.014;2023-01-29T09:45:13;30.20;;;19.90;;
38581;SDS011;24349;53.720;10.014;2023-01-29T09:47:41;34.42;;;22.95;;
38581;SDS011;24349;53.720;10.014;2023-01-29T09:52:47;38.70;;;24.63;;
38581;SDS011;24349;53.720;10.014;2023-01-29T09:55:41;32.10;;;19.63;;
38581;SDS011;24349;53.720;10.014;2023-01-29T09:58:30;40.67;;;24.35;;
38581;SDS011;24349;53.720;10.014;2023-01-29T10:01:11;38.20;;;25.65;;
38581;SDS011;24349;53.720;10.014;2023-01-29T10:23:36;36.25;;;21.00;;
38581;SDS011;24349;53.720;10.014;2023-01-29T10:26:05;32.25;;;19.88;;
38581;SDS011;24349;53.720;10.014;2023-01-29T10:28:40;38.88;;;24.77;;
38581;SDS011;24349;53.720;10.014;2023-01-29T10:31:31;31.85;;;20.92;;
38581;SDS011;24349;53.720;10.014;2023-01-29T10:36:44;31.98;;;21.65;;
38581;SDS011;24349;53.720;10.014;2023-01-29T10:39:14;32.78;;;22.38;;
38581;SDS011;24349;53.720;10.014;2023-01-29T10:49:56;35.53;;;23.05;;
38581;SDS011;24349;53.720;10.014;2023-01-29T10:52:38;32.75;;;20.02;;
38581;SDS011;24349;53.720;10.014;2023-01-29T10:58:40;37.70;;;23.80;;
38581;SDS011;24349;53.720;10.014;2023-01-29T11:01:19;34.65;;;22.35;;
38581;SDS011;24349;53.720;10.014;2023-01-29T11:03:44;33.97;;;22.08;;
38581;SDS011;24349;53.720;10.014;2023-01-29T11:08:51;35.55;;;22.70;;
38581;SDS011;24349;53.720;10.014;2023-01-29T11:11:23;35.78;;;23.63;;
38581;SDS011;24349;53.720;10.014;2023-01-29T11:14:21;38.17;;;24.50;;
38581;SDS011;24349;53.720;10.014;2023-01-29T11:16:52;38.20;;;25.50;;
38581;SDS011;24349;53.720;10.014;2023-01-29T11:19:18;39.28;;;25.35;;
38581;SDS011;24349;53.720;10.014;2023-01-29T11:22:04;33.13;;;21.77;;
38581;SDS011;24349;53.720;10.014;2023-01-29T11:24:36;36.95;;;23.52;;
38581;SDS011;24349;53.720;10.014;2023-01-29T11:27:02;34.60;;;21.90;;
38581;SDS011;24349;53.720;10.014;2023-01-29T11:29:57;36.47;;;24.17;;
38581;SDS011;24349;53.720;10.014;2023-01-29T11:32:24;34.53;;;22.58;;
38581;SDS011;24349;53.720;10.014;2023-01-29T11:37:37;32.97;;;21.05;;
38581;SDS011;24349;53.720;10.014;2023-01-29T11:42:48;32.55;;;20.55;;
38581;SDS011;24349;53.720;10.014;2023-01-29T11:47:48;34.03;;;22.50;;
38581;SDS011;24349;53.720;10.014;2023-01-29T11:50:19;33.88;;;23.73;;
38581;SDS011;24349;53.720;10.014;2023-01-29T11:52:48;34.85;;;23.17;;
38581;SDS011;24349;53.720;10.014;2023-01-29T11:55:27;37.03;;;24.35;;
38581;SDS011;24349;53.720;10.014;2023-01-29T11:57:58;40.60;;;25.65;;
38581;SDS011;24349;53.720;10.014;2023-01-29T12:00:28;34.47;;;22.65;;
38581;SDS011;24349;53.720;10.014;2023-01-29T12:05:51;28.67;;;19.00;;
38581;SDS011;24349;53.720;10.014;2023-01-29T12:08:19;36.67;;;25.23;;
38581;SDS011;24349;53.720;10.014;2023-01-29T12:10:47;33.03;;;21.48;;
38581;SDS011;24349;53.720;10.014;2023-01-29T12:15:44;36.58;;;23.88;;
38581;SDS011;24349;53.720;10.014;2023-01-29T12:18:30;31.83;;;21.88;;
38581;SDS011;24349;53.720;10.014;2023-01-29T12:21:03;40.05;;;25.90;;
38581;SDS011;24349;53.720;10.014;2023-01-29T12:26:07;27.40;;;17.02;;
38581;SDS011;24349;53.720;10.014;2023-01-29T12:39:44;32.15;;;22.60;;
38581;SDS011;24349;53.720;10.014;2023-01-29T12:42:18;32.85;;;21.25;;
38581;SDS011;24349;53.720;10.014;2023-01-29T12:44:48;33.60;;;23.50;;
38581;SDS011;24349;53.720;10.014;2023-01-29T12:47:29;31.52;;;21.02;;
38581;SDS011;24349;53.720;10.014;2023-01-29T12:50:08;29.48;;;19.50;;
38581;SDS011;24349;53.720;10.014;2023-01-29T12:56:02;36.55;;;23.00;;
38581;SDS011;24349;53.720;10.014;2023-01-29T12:58:47;35.20;;;23.27;;
38581;SDS011;24349;53.720;10.014;2023-01-29T13:01:16;30.40;;;18.80;;
38581;SDS011;24349;53.720;10.014;2023-01-29T13:03:51;29.70;;;21.58;;
38581;SDS011;24349;53.720;10.014;2023-01-29T13:06:29;31.10;;;22.38;;
38581;SDS011;24349;53.720;10.014;2023-01-29T13:11:55;31.85;;;19.83;;
38581;SDS011;24349;53.720;10.014;2023-01-29T13:14:42;31.02;;;20.48;;
38581;SDS011;24349;53.720;10.014;2023-01-29T13:17:17;30.67;;;22.17;;
38581;SDS011;24349;53.720;10.014;2023-01-29T13:19:53;31.13;;;20.73;;
38581;SDS011;24349;53.720;10.014;2023-01-29T13:22:41;31.92;;;21.52;;
38581;SDS011;24349;53.720;10.014;2023-01-29T13:25:13;29.02;;;19.75;;
38581;SDS011;24349;53.720;10.014;2023-01-29T13:27:41;33.65;;;24.55;;
38581;SDS011;24349;53.720;10.014;2023-01-29T13:30:22;31.65;;;22.02;;
38581;SDS011;24349;53.720;10.014;2023-01-29T13:32:52;34.28;;;22.63;;
38581;SDS011;24349;53.720;10.014;2023-01-29T13:35:20;31.75;;;21.60;;
38581;SDS011;24349;53.720;10.014;2023-01-29T13:37:48;33.67;;;21.85;;
38581;SDS011;24349;53.720;10.014;2023-01-29T13:40:33;30.95;;;20.60;;
38581;SDS011;24349;53.720;10.014;2023-01-29T13:43:00;33.72;;;23.52;;
38581;SDS011;24349;53.720;10.014;2023-01-29T13:45:30;30.48;;;22.40;;
38581;SDS011;24349;53.720;10.014;2023-01-29T13:50:50;29.73;;;20.83;;
38581;SDS011;24349;53.720;10.014;2023-01-29T13:53:26;28.88;;;19.08;;
38581;SDS011;24349;53.720;10.014;2023-01-29T13:58:57;35.70;;;24.48;;
38581;SDS011;24349;53.720;10.014;2023-01-29T14:06:46;30.65;;;21.55;;
38581;SDS011;24349;53.720;10.014;2023-01-29T14:12:01;31.70;;;22.50;;
38581;SDS011;24349;53.720;10.014;2023-01-29T14:17:29;32.17;;;22.05;;
38581;SDS011;24349;53.720;10.014;2023-01-29T14:20:00;35.38;;;25.17;;
38581;SDS011;24349;53.720;10.014;2023-01-29T14:22:38;34.10;;;23.48;;
38581;SDS011;24349;53.720;10.014;2023-01-29T14:25:05;31.30;;;20.15;;
38581;SDS011;24349;53.720;10.014;2023-01-29T14:27:32;31.92;;;23.45;;
38581;SDS011;24349;53.720;10.014;2023-01-29T14:30:00;33.05;;;22.45;;
38581;SDS011;24349;53.720;10.014;2023-01-29T14:32:31;32.30;;;22.17;;
38581;SDS011;24349;53.720;10.014;2023-01-29T14:37:49;34.65;;;24.23;;
38581;SDS011;24349;53.720;10.014;2023-01-29T14:40:22;32.58;;;21.23;;
38581;SDS011;24349;53.720;10.014;2023-01-29T14:42:52;30.15;;;19.77;;
38581;SDS011;24349;53.720;10.014;2023-01-29T14:55:40;33.63;;;21.48;;
38581;SDS011;24349;53.720;10.014;2023-01-29T14:58:22;37.80;;;23.83;;
38581;SDS011;24349;53.720;10.014;2023-01-29T15:00:57;32.08;;;22.67;;
38581;SDS011;24349;53.720;10.014;2023-01-29T15:03:43;35.92;;;22.60;;
38581;SDS011;24349;53.720;10.014;2023-01-29T15:06:26;30.33;;;18.67;;
38581;SDS011;24349;53.720;10.014;2023-01-29T15:08:55;30.98;;;20.58;;
38581;SDS011;24349;53.720;10.014;2023-01-29T15:11:30;33.85;;;23.40;;
38581;SDS011;24349;53.720;10.014;2023-01-29T15:14:16;39.55;;;25.45;;
38581;SDS011;24349;53.720;10.014;2023-01-29T15:17:03;32.50;;;21.08;;
38581;SDS011;24349;53.720;10.014;2023-01-29T15:19:36;35.53;;;24.92;;
38581;SDS011;24349;53.720;10.014;2023-01-29T15:22:15;29.15;;;20.92;;
38581;SDS011;24349;53.720;10.014;2023-01-29T15:24:46;30.75;;;20.15;;
38581;SDS011;24349;53.720;10.014;2023-01-29T15:27:26;32.58;;;22.25;;
38581;SDS011;24349;53.720;10.014;2023-01-29T15:29:55;33.55;;;22.65;;
38581;SDS011;24349;53.720;10.014;2023-01-29T15:32:27;36.38;;;25.42;;
38581;SDS011;24349;53.720;10.014;2023-01-29T15:35:07;36.00;;;23.70;;
38581;SDS011;24349;53.720;10.014;2023-01-29T15:37:35;38.65;;;24.63;;
38581;SDS011;24349;53.720;10.014;2023-01-29T15:40:11;37.10;;;25.20;;
38581;SDS011;24349;53.720;10.014;2023-01-29T15:42:42;38.88;;;27.02;;
38581;SDS011;24349;53.720;10.014;2023-01-29T15:45:22;35.97;;;23.98;;
38581;SDS011;24349;53.720;10.014;2023-01-29T15:47:52;38.38;;;25.30;;
38581;SDS011;24349;53.720;10.014;2023-01-29T15:50:30;32.83;;;21.83;;
38581;SDS011;24349;53.720;10.014;2023-01-29T15:52:57;37.63;;;25.52;;
38581;SDS011;24349;53.720;10.014;2023-01-29T15:55:27;33.75;;;21.42;;
38581;SDS011;24349;53.720;10.014;2023-01-29T15:57:55;39.85;;;26.63;;
38581;SDS011;24349;53.720;10.014;2023-01-29T16:02:52;42.17;;;27.05;;
38581;SDS011;24349;53.720;10.014;2023-01-29T16:05:20;39.88;;;27.17;;
38581;SDS011;24349;53.720;10.014;2023-01-29T16:07:57;40.67;;;26.38;;
38581;SDS011;24349;53.720;10.014;2023-01-29T16:10:28;39.05;;;26.83;;
38581;SDS011;24349;53.720;10.014;2023-01-29T16:12:56;38.85;;;26.25;;
38581;SDS011;24349;53.720;10.014;2023-01-29T16:17:59;37.67;;;23.40;;
38581;SDS011;24349;53.720;10.014;2023-01-29T16:20:37;33.25;;;22.42;;
38581;SDS011;24349;53.720;10.014;2023-01-29T16:23:14;39.22;;;24.83;;
38581;SDS011;24349;53.720;10.014;2023-01-29T16:25:42;37.50;;;25.73;;
38581;SDS011;24349;53.720;10.014;2023-01-29T16:28:07;37.60;;;24.65;;
38581;SDS011;24349;53.720;10.014;2023-01-29T16:30:35;41.28;;;28.10;;
38581;SDS011;24349;53.720;10.014;2023-01-29T16:33:02;38.10;;;25.75;;
38581;SDS011;24349;53.720;10.014;2023-01-29T16:35:29;43.33;;;28.02;;
38581;SDS011;24349;53.720;10.014;2023-01-29T16:37:57;42.17;;;28.70;;
38581;SDS011;24349;53.720;10.014;2023-01-29T16:40:31;42.45;;;28.70;;
38581;SDS011;24349;53.720;10.014;2023-01-29T16:43:46;43.13;;;28.10;;
38581;SDS011;24349;53.720;10.014;2023-01-29T16:46:02;45.30;;;30.92;;
38581;SDS011;24349;53.720;10.014;2023-01-29T16:48:31;46.42;;;31.13;;
38581;SDS011;24349;53.720;10.014;2023-01-29T16:51:04;49.67;;;35.63;;
38581;SDS011;24349;53.720;10.014;2023-01-29T16:53:36;43.47;;;30.83;;
38581;SDS011;24349;53.720;10.014;2023-01-29T16:56:02;50.28;;;35.63;;
38581;SDS011;24349;53.720;10.014;2023-01-29T16:58:33;45.30;;;31.08;;
38581;SDS011;24349;53.720;10.014;2023-01-29T17:03:32;38.85;;;25.13;;